Station: Marree Airport  

  Atmospheric Gas Attenuation - ITU Rec 676-11   ----------------- dB/100km -----------------
Date Time Temp RH % AH g/m3 Dew Point Wind Direction Speed kph Gust kph Barometer mB Rainfall Since 9am 24GHz 47GHz 76GHz 122GHz 134GHz 241GHz
08/05 12:00 17.4 39 5.78 3.3 11 19 1030.6 0 13.5 21.3 28.5 74.0 61.3 208.5
08/05 11:50 17.4 39 5.78 3.3 9 13 1030.8 0 13.5 21.3 28.5 74.0 61.3 208.5
08/05 11:40 16.9 41 5.9 3.6 11 13 1031 0 13.7 21.6 29.1 75.6 63.1 214.7
08/05 11:30 17.3 39 5.75 3.2 13 20 1031.2 0 13.4 21.3 28.4 73.8 61.0 207.6
08/05 11:20 17.4 41 6.08 4 11 13 1031.5 0 14.1 21.8 29.5 76.8 64.8 220.8
08/05 11:10 16.8 41 5.86 3.5 13 15 1031.5 0 13.7 21.6 29.0 75.3 62.7 213.4
08/05 11:00 16.7 42 5.97 3.7 11 20 1031.6 0 13.9 21.8 29.4 76.5 64.1 218.2
08/05 10:50 16.4 43 6 3.8 13 13 1031.7 0 14.0 21.9 29.6 77.0 64.6 220.3
08/05 10:40 16.3 43 5.97 3.7 11 13 1031.8 0 13.9 21.9 29.6 76.8 64.4 219.3
08/05 10:30 15.7 44 5.89 3.5 9 17 1031.7 0 13.8 21.9 29.5 76.6 63.9 217.6
08/05 10:20 15.8 45 6.06 3.9 13 15 1031.8 0 14.1 22.1 30.1 78.2 65.8 224.4
08/05 10:10 15.6 44 5.85 3.4 17 19 1031.9 0 13.7 21.9 29.4 76.4 63.5 216.2
08/05 10:00 15.5 45 5.95 3.6 13 19 1031.8 0 13.9 22.1 29.8 77.4 64.8 220.6
08/05 09:50 15.1 46 5.93 3.6 17 19 1031.9 0 13.9 22.1 29.9 77.6 64.9 220.9
08/05 09:40 15.3 46 6.01 3.8 15 19 1032.1 0 14.0 22.2 30.1 78.2 65.7 223.7
08/05 09:30 15 48 6.15 4.1 15 20 1032 0 14.3 22.5 30.7 79.8 67.6 230.4
08/05 09:20 14.4 51 6.3 4.4 13 17 1032.2 0 14.7 22.8 31.5 81.9 69.9 238.6
08/05 09:10 13.6 53 6.24 4.2 11 13 1032.1 0 14.6 23.0 31.6 82.1 69.9 238.3
08/05 09:00 12.7 54 6.01 3.6 9 11 1031.9 0 14.1 22.8 31.0 80.7 67.8 231.0
08/05 08:50 12.1 56 6.01 3.6 7 7 1032 0 14.1 23.0 31.3 81.4 68.4 232.8
08/05 08:40 11.6 57 5.93 3.4 7 7 1031.9 0 14.0 23.0 31.2 81.1 67.8 230.7
08/05 08:30 10.8 59 5.83 3.1 0 0 1031.8 0 13.8 23.0 31.1 80.8 67.2 228.6
08/05 08:20 9.9 62 5.79 3 0 0 1031.8 0 13.8 23.2 31.3 81.3 67.5 229.4
08/05 08:10 9.2 64 5.72 2.8 0 0 1031.7 0 13.6 23.3 31.3 81.3 67.2 228.2
08/05 08:00 8.5 68 5.81 2.9 0 0 1031.5 0 13.8 23.6 31.9 83.0 68.9 234.3
08/05 07:50 7.5 71 5.69 2.6 0 0 1031.5 0 13.6 23.6 31.8 82.8 68.3 231.8
08/05 07:40 7.1 73 5.7 2.6 0 0 1031.5 0 13.7 23.8 32.0 83.3 68.7 233.4
08/05 07:30 6.4 74 5.52 2.1 0 0 1031.3 0 13.3 23.7 31.6 82.1 67.0 227.1
08/05 07:20 6 77 5.59 2.3 0 0 1031.3 0 13.5 23.9 32.0 83.3 68.2 231.5
08/05 07:10 4.9 78 5.27 1.4 4 9 1031 0 12.8 23.6 31.1 80.9 64.9 219.7
08/05 07:00 4.7 72 4.8 0.1 6 7 1030.9 0 11.8 22.9 29.4 76.2 58.9 198.6
08/05 06:50 5.3 77 5.34 1.6 6 7 1030.9 0 13.0 23.6 31.3 81.3 65.5 221.8
08/05 06:40 4.8 76 5.1 0.9 7 7 1030.8 0 12.5 23.4 30.5 79.2 62.8 212.1
08/05 06:30 5 75 5.1 0.9 7 7 1030.7 0 12.5 23.3 30.4 79.0 62.6 211.5
08/05 06:20 5.2 75 5.17 1.1 7 7 1030.6 0 12.6 23.4 30.6 79.5 63.3 214.2
08/05 06:10 5.4 76 5.31 1.5 7 7 1030.4 0 12.9 23.5 31.1 80.8 65.0 220.1
08/05 06:00 5.3 76 5.27 1.4 7 11 1030.4 0 12.8 23.5 31.0 80.5 64.6 218.5
08/05 05:50 5.1 75 5.13 1 11 13 1030.2 0 12.5 23.3 30.5 79.2 62.9 212.5
08/05 05:40 5.5 76 5.34 1.6 15 15 1030.1 0 13.0 23.6 31.2 81.0 65.3 221.1
08/05 05:30 5.7 75 5.34 1.6 13 15 1030.1 0 12.9 23.5 31.1 80.8 65.1 220.6
08/05 05:20 6 73 5.3 1.5 13 15 1030 0 12.8 23.4 30.8 80.1 64.4 217.9
08/05 05:10 6.9 71 5.47 2 15 15 1029.9 0 13.2 23.4 31.1 80.9 65.8 223.1
08/05 05:00 7.3 69 5.45 2 17 19 1030 0 13.1 23.3 30.9 80.3 65.2 221.1
08/05 04:50 7.6 69 5.56 2.3 17 19 1029.9 0 13.3 23.4 31.2 81.1 66.4 225.2
08/05 04:40 7.6 68 5.48 2.1 17 19 1029.9 0 13.2 23.2 30.9 80.3 65.4 221.6
08/05 04:30 7.8 69 5.63 2.5 19 20 1029.8 0 13.5 23.4 31.4 81.7 67.1 227.8
08/05 04:20 6.8 74 5.66 2.5 17 19 1029.9 0 13.6 23.7 31.9 83.0 68.4 232.1
08/05 04:10 6.2 76 5.59 2.3 15 15 1029.8 0 13.5 23.8 31.9 82.9 68.0 230.6
08/05 04:00 6 76 5.52 2.1 15 15 1029.8 0 13.3 23.7 31.7 82.4 67.2 228.0
08/05 03:50 5.7 77 5.48 2 15 15 1029.8 0 13.2 23.7 31.6 82.3 67.0 227.0
08/05 03:40 5.3 76 5.27 1.4 13 13 1029.8 0 12.8 23.5 30.9 80.4 64.5 218.4
08/05 03:30 5.8 74 5.3 1.5 9 11 1029.8 0 12.9 23.4 30.9 80.2 64.5 218.4
08/05 03:20 6.2 75 5.52 2.1 11 11 1029.8 0 13.3 23.7 31.6 82.2 67.1 227.4
08/05 03:10 6.6 74 5.59 2.3 15 17 1029.7 0 13.4 23.7 31.7 82.5 67.6 229.4
08/05 03:00 6.2 74 5.45 1.9 15 17 1029.7 0 13.2 23.5 31.3 81.4 66.1 224.1
08/05 02:50 5.9 74 5.34 1.6 15 15 1029.6 0 12.9 23.4 31.0 80.5 64.9 219.9
08/05 02:40 6.1 72 5.26 1.4 13 15 1029.6 0 12.8 23.3 30.6 79.5 63.7 215.7
08/05 02:30 6.5 72 5.4 1.8 13 15 1029.6 0 13.0 23.4 31.0 80.6 65.2 221.0
08/05 02:20 7.1 71 5.54 2.2 13 15 1029.6 0 13.3 23.4 31.3 81.4 66.5 225.7
08/05 02:10 7 70 5.43 1.9 15 15 1029.6 0 13.1 23.3 30.9 80.4 65.2 221.0
08/05 02:00 6.8 69 5.28 1.5 13 15 1029.7 0 12.8 23.1 30.4 79.0 63.4 214.7
08/05 01:50 6.7 69 5.25 1.4 15 15 1029.7 0 12.7 23.1 30.3 78.8 63.1 213.6
08/05 01:40 6.8 69 5.28 1.5 15 15 1029.7 0 12.8 23.1 30.4 79.0 63.4 214.7
08/05 01:30 6.6 69 5.21 1.3 13 15 1029.9 0 12.6 23.1 30.2 78.5 62.7 212.1
08/05 01:20 6.4 68 5.07 0.9 13 13 1029.9 0 12.3 22.9 29.7 77.2 61.1 206.3
08/05 01:10 6.8 67 5.13 1.1 9 9 1029.9 0 12.5 22.9 29.8 77.5 61.5 208.0
08/05 01:00 7.6 63 5.08 1 9 13 1030 0 12.3 22.6 29.4 76.2 60.3 203.7
08/05 00:50 8.8 64 5.57 2.4 11 13 1030 0 13.3 23.1 30.8 80.0 65.5 222.3
08/05 00:40 8.2 63 5.28 1.6 11 13 1029.8 0 12.7 22.8 29.9 77.6 62.3 211.0
08/05 00:30 8.3 63 5.31 1.7 11 13 1029.8 0 12.8 22.8 30.0 77.9 62.6 212.1
08/05 00:20 8.6 61 5.24 1.5 9 11 1029.8 0 12.6 22.6 29.6 76.9 61.5 208.2
08/05 00:10 8.1 62 5.16 1.3 7 9 1029.8 0 12.5 22.6 29.5 76.5 60.9 206.0
08/05 00:00 8.5 61 5.21 1.4 9 11 1029.8 0 12.6 22.6 29.5 76.6 61.2 207.1
07/05 23:50 9.2 59 5.27 1.6 7 9 1029.8 0 12.7 22.5 29.5 76.6 61.4 208.0
07/05 23:40 10.2 57 5.43 2.1 7 9 1029.9 0 13.0 22.5 29.7 77.2 62.6 212.4
07/05 23:30 10.5 57 5.53 2.4 13 15 1029.9 0 13.2 22.6 30.0 77.9 63.6 215.9
07/05 23:20 10.5 56 5.43 2.1 15 15 1029.9 0 13.0 22.4 29.6 76.9 62.4 211.6
07/05 23:10 10.5 56 5.43 2.1 13 15 1029.9 0 13.0 22.4 29.6 76.9 62.4 211.6
07/05 23:00 10.4 56 5.4 2 15 15 1030 0 12.9 22.4 29.5 76.8 62.1 210.5
07/05 22:50 11.2 56 5.68 2.8 11 13 1030.1 0 13.5 22.6 30.3 78.8 64.9 220.6
07/05 22:40 10 58 5.45 2.1 15 15 1030.1 0 13.0 22.6 29.9 77.6 63.0 213.8
07/05 22:30 9.5 58 5.28 1.7 13 15 1030.2 0 12.7 22.5 29.4 76.4 61.3 207.7
07/05 22:20 9.5 56 5.1 1.2 9 11 1030.1 0 12.3 22.2 28.8 74.6 59.1 199.8
07/05 22:10 10 55 5.17 1.4 9 9 1030.2 0 12.4 22.2 28.8 74.9 59.6 201.7
07/05 22:00 9.8 57 5.29 1.7 7 9 1030.2 0 12.7 22.4 29.4 76.2 61.2 207.4
07/05 21:50 9.6 56 5.13 1.3 7 7 1030.2 0 12.4 22.2 28.8 74.8 59.4 200.9
07/05 21:40 10 54 5.08 1.1 7 7 1030 0 12.2 22.0 28.5 73.9 58.5 197.7
07/05 21:30 10.5 54 5.24 1.6 11 11 1029.9 0 12.6 22.1 28.9 75.1 60.1 203.4
07/05 21:20 10.8 53 5.24 1.6 11 11 1029.9 0 12.6 22.1 28.8 74.8 59.8 202.6
07/05 21:10 11.3 52 5.3 1.8 13 13 1029.8 0 12.7 22.0 28.8 74.9 60.2 203.9
07/05 21:00 11.4 51 5.24 1.6 11 13 1029.7 0 12.5 21.9 28.6 74.2 59.4 201.1
07/05 20:50 12 49 5.22 1.6 13 13 1029.6 0 12.5 21.7 28.3 73.5 58.7 198.7
07/05 20:40 12 49 5.22 1.6 15 15 1029.6 0 12.5 21.7 28.3 73.5 58.7 198.7
07/05 20:30 12 49 5.22 1.6 15 17 1029.5 0 12.5 21.7 28.3 73.4 58.7 198.7
07/05 20:20 12.2 48 5.18 1.5 13 15 1029.4 0 12.4 21.6 28.1 72.9 58.0 196.5
07/05 20:10 12.5 47 5.17 1.5 13 13 1029.3 0 12.4 21.5 27.9 72.5 57.7 195.4
07/05 20:00 12.3 47 5.1 1.3 13 15 1029.1 0 12.2 21.5 27.7 72.0 57.0 192.9
07/05 19:50 11.9 47 4.98 1 11 13 1029 0 12.0 21.4 27.4 71.2 55.9 188.8
07/05 19:40 12.1 46 4.93 0.8 11 13 1028.8 0 11.9 21.3 27.2 70.5 55.1 186.2
07/05 19:30 12.7 45 5.01 1.1 15 17 1028.8 0 12.0 21.2 27.3 70.7 55.6 188.2

Last Refresh: 08-May-2026 12:07:28

Bureau of Meteorology